Terminal Aerodrome Forecast
Issued by NWS

Home | Current Version | Previous Version | Text Only | Print | Product List | Glossary On
Versions: 1 2 3 4 5 6 7 8 9 10 11 12 13 14 15 16 17 18
820
FTUS43 KBIS 240523
TAFJMS
TAF
KJMS 240523Z 2406/2506 33016KT P6SM SKC WS020/35035KT
     FM241500 33017KT P6SM FEW035 FEW150
     FM242200 30013G21KT P6SM FEW140 FEW200
     FM250100 27008KT P6SM SCT110 WS020/28040KT=

USA.gov is the U.S. government's official web portal to all federal, state and local government web resources and services.